createdAt,value
2018-08-23T00:04:26.690Z,23.8
2018-08-23T00:21:17.924Z,23.8
2018-08-23T00:38:08.935Z,23.5
2018-08-23T00:54:59.857Z,23.5
2018-08-23T01:11:50.706Z,23.5
2018-08-23T01:28:41.141Z,23.2
2018-08-23T01:45:31.621Z,23.2
2018-08-23T02:02:22.250Z,23.2
2018-08-23T02:19:13.221Z,23.2
2018-08-23T02:36:03.349Z,23.5
2018-08-23T02:52:54.035Z,23.5
2018-08-23T03:09:44.823Z,23.5
2018-08-23T03:26:35.658Z,23.5
2018-08-23T03:43:26.296Z,23.2
2018-08-23T04:00:16.910Z,23.2
2018-08-23T04:17:07.825Z,23.2
2018-08-23T04:33:58.268Z,23.2
2018-08-23T04:50:48.728Z,23.2
2018-08-23T05:07:39.462Z,23.2
2018-08-23T05:24:30.002Z,23.2
2018-08-23T05:41:20.659Z,23.2
2018-08-23T05:58:11.195Z,23.5
2018-08-23T06:15:02.024Z,23.8
2018-08-23T06:31:53.666Z,23.8
2018-08-23T06:48:45.152Z,23.8
2018-08-23T07:05:36.449Z,23.8
2018-08-23T07:22:27.849Z,23.8
2018-08-23T07:39:19.081Z,23.8
2018-08-23T07:56:10.311Z,23.8
2018-08-23T08:13:01.883Z,24.2
2018-08-23T08:29:53.761Z,24.2
2018-08-23T08:46:45.547Z,24.5
2018-08-23T09:03:37.890Z,24.8
2018-08-23T09:20:30.495Z,24.8
2018-08-23T09:37:23.159Z,25.1
2018-08-23T09:54:16.255Z,25.4
2018-08-23T10:11:09.502Z,25.8
2018-08-23T10:28:03.216Z,26.1
2018-08-23T10:44:57.461Z,26.1
2018-08-23T11:01:51.862Z,26.1
2018-08-23T11:18:45.050Z,26.4
2018-08-23T11:35:39.095Z,26.4
2018-08-23T11:52:33.252Z,26.4
2018-08-23T12:09:27.522Z,26.4
2018-08-23T12:26:22.004Z,26.7
2018-08-23T12:43:16.562Z,26.7
2018-08-23T13:00:11.266Z,26.7
2018-08-23T13:17:06.115Z,26.7
2018-08-23T13:34:00.814Z,26.7
2018-08-23T13:50:55.593Z,27.0
2018-08-23T14:07:50.349Z,27.0
2018-08-23T14:24:45.152Z,26.7
2018-08-23T14:41:39.967Z,26.7
2018-08-23T14:58:34.805Z,26.7
2018-08-23T15:15:29.578Z,26.7
2018-08-23T15:32:24.207Z,26.7
2018-08-23T15:49:18.718Z,26.7
2018-08-23T16:06:13.297Z,26.4
2018-08-23T16:23:07.540Z,26.4
2018-08-23T16:40:01.730Z,26.1
2018-08-23T16:56:55.625Z,26.1
2018-08-23T17:13:49.609Z,26.1
2018-08-23T17:30:43.384Z,25.8
2018-08-23T17:47:36.657Z,25.4
2018-08-23T18:04:30.004Z,25.4
2018-08-23T18:21:23.134Z,25.1
2018-08-23T18:38:16.076Z,25.1
2018-08-23T18:55:08.861Z,24.8
2018-08-23T19:12:01.802Z,24.8
2018-08-23T19:28:54.099Z,24.5
2018-08-23T19:45:46.686Z,24.5
2018-08-23T20:02:39.255Z,24.5
2018-08-23T20:19:31.805Z,24.5
2018-08-23T20:36:24.813Z,24.5
2018-08-23T20:53:15.943Z,24.5
2018-08-23T21:10:07.480Z,24.2
2018-08-23T21:26:58.741Z,24.2
2018-08-23T21:43:50.058Z,23.8
2018-08-23T22:00:41.133Z,23.8
2018-08-23T22:17:32.164Z,23.8
2018-08-23T22:34:23.220Z,23.5
2018-08-23T22:51:14.085Z,23.5
2018-08-23T23:08:06.023Z,23.8
2018-08-23T23:24:56.029Z,23.5
2018-08-23T23:41:46.879Z,23.5
2018-08-23T23:58:37.576Z,23.5
